Accueil
METAR-TAF:

METAR-TAF

Aéroports :

Ivujivik, Québec, Canada

Aéroport d'Ivujivik

latitude: 62-25N, longitude: 077-57W, altitude: 42 m

Observation

Le bulletin a été fait il y a 6 heures et 21 minutes, à 22:00 UTC
Vent 6 kt de nord/nord-ouest
Température -22°C
Humidité 76%
Pression 1007 hPa
Visibilité: 24.1 km
Nuages épars à une hauteur de 1500 ft
cristaux de glace

METAR: CYIK 232200Z 34006KT 15SM IC SCT015 M22/M25 A2974 RMK SC4 SN TR LOOSE LAST STFD OBS/NEXT SLP077

Heure: 23:21 (04:21 UTC)

Prévision

Le bulletin a été fait il y a 8 heures et 5 minutes, à 20:16 UTC
Prévision valable du 23 à 20 UTC au 23 à 22 UTC
Vent 7 kt de sud-ouest
Visibilité: 10 km
Quelques nuages à une hauteur de 2000 ft
Temporairement
du 23 à 20 UTC au 23 à 22 UTC
Nuages fragmentés à une hauteur de 2000 ft

TAF: CYIK 232016Z 2320/2322 22007KT P6SM FEW020 TEMPO 2320/2322 BKN020 RMK NXT FCST WILL BE ISSUED AT 241445Z

Observations et prévisions météorologiques de plus de 4000 aéroports (messages METAR et TAF).

Les stations disponibles sont représentées par des disques jaunes et rouges sur la carte.

Passer la souris dessus pour voir le nom de la station.

Cliquer dessus pour voir les observations et prévisions météorologiques.

Pour changer de carte: cliquez sur les boutons verts avec une croix noire pour zoomer, sur le bouton vert avec un tiret pour effectuer un zoom arrière, ou sur les flèches vertes pour les cartes adjacentes.


METAR-TAF: